Time;durP1;ratioP1;P1;durP2;ratioP2;P2;SDS_P1;SDS_P2;PMS_P1;PMS_P2;Temp;Humidity;BMP_temperature;BMP_pressure;BME280_temperature;BME280_humidity;BME280_pressure;Samples;Min_cycle;Max_cycle;Signal;HPM_P1;HPM_P2
2022/03/04 00:01:03;;;;;;;13.55;7.65;;;2.30;99.90;;;;;;4810113;29;20050;-85
2022/03/04 00:03:29;;;;;;;13.15;7.13;;;1.60;99.90;;;;;;4818615;29;20065;-85
2022/03/04 00:05:55;;;;;;;13.82;6.80;;;1.20;99.90;;;;;;4807820;29;20046;-84
2022/03/04 00:08:20;;;;;;;15.48;7.00;;;1.20;99.90;;;;;;4809302;29;20398;-85
2022/03/04 00:10:46;;;;;;;13.52;6.95;;;1.20;99.90;;;;;;4824844;29;20051;-85
2022/03/04 00:13:13;;;;;;;12.98;7.07;;;1.60;99.90;;;;;;4811690;29;20050;-85
2022/03/04 00:15:38;;;;;;;13.82;6.60;;;1.10;99.90;;;;;;4824088;29;20058;-85
2022/03/04 00:18:04;;;;;;;19.52;8.95;;;1.70;99.90;;;;;;4791196;29;20051;-84
2022/03/04 00:20:31;;;;;;;15.65;7.30;;;1.60;99.90;;;;;;4821534;29;20046;-84
2022/03/04 00:22:56;;;;;;;13.90;7.22;;;1.00;99.90;;;;;;4821577;29;20078;-85
2022/03/04 00:25:22;;;;;;;11.82;6.30;;;1.70;99.90;;;;;;4815408;29;20078;-85
2022/03/04 00:27:48;;;;;;;15.77;6.88;;;0.90;99.90;;;;;;4809652;29;20457;-84
2022/03/04 00:30:14;;;;;;;12.45;6.45;;;1.10;99.90;;;;;;4804305;29;20043;-88
2022/03/04 00:32:39;;;;;;;15.07;7.50;;;0.90;99.90;;;;;;4822016;29;20123;-85
2022/03/04 00:35:06;;;;;;;10.85;5.80;;;1.10;99.90;;;;;;4822914;29;20094;-84
2022/03/04 00:37:32;;;;;;;16.10;8.80;;;0.80;99.90;;;;;;4821471;29;20574;-84
2022/03/04 00:39:58;;;;;;;12.45;7.78;;;0.80;99.90;;;;;;4821444;29;20054;-86
2022/03/04 00:42:24;;;;;;;11.43;6.32;;;1.50;99.90;;;;;;4806153;29;20057;-84
2022/03/04 00:44:50;;;;;;;15.30;7.93;;;0.70;99.90;;;;;;4806340;29;20046;-84
2022/03/04 00:47:16;;;;;;;14.73;7.07;;;1.20;99.90;;;;;;4836399;29;20051;-84
2022/03/04 00:49:42;;;;;;;13.40;6.32;;;1.10;99.90;;;;;;4800096;29;20065;-85
2022/03/04 00:52:08;;;;;;;12.98;6.78;;;0.70;99.90;;;;;;4824015;29;20057;-85
2022/03/04 00:54:33;;;;;;;14.70;7.18;;;1.60;99.90;;;;;;4831885;29;20078;-85
2022/03/04 00:56:59;;;;;;;18.60;9.07;;;0.60;99.90;;;;;;4815347;29;20114;-85
2022/03/04 00:59:25;;;;;;;14.98;6.85;;;0.70;99.90;;;;;;4822020;29;20450;-85
2022/03/04 01:01:50;;;;;;;14.20;7.45;;;0.60;99.90;;;;;;4806761;29;20142;-86
2022/03/04 01:04:16;;;;;;;17.70;8.18;;;0.60;99.90;;;;;;4824188;29;20492;-84
2022/03/04 01:06:42;;;;;;;16.17;7.80;;;1.20;99.90;;;;;;4835902;29;20049;-84
2022/03/04 01:09:08;;;;;;;18.20;7.40;;;0.50;99.90;;;;;;4808854;29;20062;-86
2022/03/04 01:11:34;;;;;;;18.33;7.57;;;0.50;99.90;;;;;;4821489;29;20061;-84
2022/03/04 01:14:00;;;;;;;16.77;7.53;;;0.50;99.90;;;;;;4806659;29;20050;-85
2022/03/04 01:16:26;;;;;;;18.90;8.02;;;0.50;99.90;;;;;;4795886;29;20042;-84
2022/03/04 01:18:51;;;;;;;16.08;7.13;;;0.70;99.90;;;;;;4814927;29;20125;-84
2022/03/04 01:21:17;;;;;;;15.93;6.95;;;1.00;99.90;;;;;;4817179;29;20050;-85
2022/03/04 01:23:43;;;;;;;16.55;7.90;;;0.50;99.90;;;;;;4816657;29;20054;-84
2022/03/04 01:26:09;;;;;;;18.65;7.85;;;0.40;99.90;;;;;;4813988;29;20046;-85
2022/03/04 01:28:35;;;;;;;15.68;7.85;;;0.40;99.90;;;;;;4818486;29;20142;-84
2022/03/04 01:31:00;;;;;;;13.90;7.25;;;0.40;99.90;;;;;;4815781;29;20149;-84
2022/03/04 01:33:26;;;;;;;18.15;7.97;;;1.10;99.90;;;;;;4823315;29;20129;-85
2022/03/04 01:35:52;;;;;;;18.52;8.70;;;0.30;99.90;;;;;;4808620;29;20513;-84
2022/03/04 01:38:17;;;;;;;17.00;8.60;;;0.30;99.90;;;;;;4815057;29;20057;-84
2022/03/04 01:40:43;;;;;;;15.18;7.90;;;0.30;99.90;;;;;;4820836;29;20054;-85
2022/03/04 01:43:09;;;;;;;16.30;7.45;;;0.20;99.90;;;;;;4822841;29;20527;-84
2022/03/04 01:45:35;;;;;;;15.18;7.50;;;0.80;99.90;;;;;;4807731;29;20484;-84
2022/03/04 01:48:01;;;;;;;19.17;8.93;;;0.40;99.90;;;;;;4821524;29;20046;-84
2022/03/04 01:50:27;;;;;;;18.17;7.20;;;1.20;99.90;;;;;;4822755;29;20054;-84
2022/03/04 01:52:53;;;;;;;16.65;7.72;;;0.20;99.90;;;;;;4820053;29;20515;-84
2022/03/04 01:55:19;;;;;;;22.10;9.27;;;0.50;99.90;;;;;;4807096;29;20055;-85
2022/03/04 01:57:45;;;;;;;16.83;8.02;;;0.40;99.90;;;;;;4808186;29;20054;-84
2022/03/04 02:00:13;;;;;;;15.68;8.45;;;0.10;99.90;;;;;;4838020;29;20065;-84
2022/03/04 02:02:40;;;;;;;20.60;9.13;;;0.10;99.90;;;;;;4809544;29;20517;-85
2022/03/04 02:05:06;;;;;;;19.42;8.57;;;0.00;99.90;;;;;;4809875;29;20134;-84
2022/03/04 02:07:34;;;;;;;16.88;8.90;;;0.00;99.90;;;;;;4823406;29;20059;-84
2022/03/04 02:09:59;;;;;;;20.35;12.70;;;0.00;99.90;;;;;;4822731;29;20054;-85
2022/03/04 02:12:25;;;;;;;20.77;9.40;;;0.80;99.90;;;;;;4819799;29;20047;-85
2022/03/04 02:14:51;;;;;;;21.35;9.40;;;0.00;99.90;;;;;;4819683;29;20606;-85
2022/03/04 02:17:16;;;;;;;17.65;9.05;;;1.00;99.90;;;;;;4822843;29;20712;-85
2022/03/04 02:19:42;;;;;;;20.92;10.35;;;0.00;99.90;;;;;;4818445;29;20085;-85
2022/03/04 02:22:08;;;;;;;21.38;9.52;;;-0.10;99.90;;;;;;4804176;29;20518;-86
2022/03/04 02:24:34;;;;;;;21.30;9.15;;;-0.20;99.90;;;;;;4804437;29;20055;-85
2022/03/04 02:27:02;;;;;;;19.08;8.90;;;-0.20;99.90;;;;;;4808696;29;20050;-84
2022/03/04 02:29:30;;;;;;;21.95;9.60;;;-0.20;99.90;;;;;;4807151;29;20115;-85
2022/03/04 02:31:56;;;;;;;23.10;10.65;;;-0.20;99.90;;;;;;4814175;29;20077;-85
2022/03/04 02:34:22;;;;;;;23.77;10.13;;;-0.10;99.90;;;;;;4837275;29;20051;-86
2022/03/04 02:36:49;;;;;;;19.73;11.85;;;-0.20;99.90;;;;;;4818901;29;20087;-84
2022/03/04 02:39:15;;;;;;;23.77;11.32;;;-0.20;99.90;;;;;;4820855;29;20050;-85
2022/03/04 02:41:41;;;;;;;25.33;12.77;;;0.70;99.90;;;;;;4803721;29;20054;-85
2022/03/04 02:44:10;;;;;;;24.27;10.90;;;-0.10;99.90;;;;;;4814550;29;20097;-85
2022/03/04 02:46:36;;;;;;;24.73;11.93;;;0.20;99.90;;;;;;4791721;29;20644;-85
2022/03/04 02:49:04;;;;;;;21.60;10.10;;;-0.10;99.90;;;;;;4803999;29;20092;-85
2022/03/04 02:51:30;;;;;;;21.42;10.95;;;0.00;99.90;;;;;;4818139;29;20428;-86
2022/03/04 02:53:55;;;;;;;22.98;11.27;;;-0.10;99.90;;;;;;4819009;29;20047;-85
2022/03/04 02:56:21;;;;;;;23.77;11.30;;;0.00;99.90;;;;;;4834289;29;20130;-84
2022/03/04 02:58:47;;;;;;;18.92;10.40;;;0.00;99.90;;;;;;4821254;29;20062;-85
2022/03/04 03:01:13;;;;;;;26.00;12.07;;;0.00;99.90;;;;;;4806567;29;20062;-85
2022/03/04 03:03:39;;;;;;;25.00;11.90;;;0.70;99.90;;;;;;4806347;29;20511;-84
2022/03/04 03:06:05;;;;;;;23.83;10.82;;;0.00;99.90;;;;;;4821559;29;20190;-85
2022/03/04 03:08:31;;;;;;;23.95;11.68;;;0.00;99.90;;;;;;4825447;29;20053;-85
2022/03/04 03:10:57;;;;;;;24.35;12.35;;;0.00;99.90;;;;;;4806542;29;20061;-84
2022/03/04 03:13:23;;;;;;;20.45;9.85;;;0.00;99.90;;;;;;4821033;29;20094;-85
2022/03/04 03:15:49;;;;;;;25.15;11.80;;;0.70;99.90;;;;;;4810602;29;20051;-84
2022/03/04 03:18:16;;;;;;;21.23;10.98;;;0.70;99.90;;;;;;4806470;29;20054;-84
2022/03/04 03:20:41;;;;;;;22.58;10.85;;;-0.10;99.90;;;;;;4799265;29;20058;-84
2022/03/04 03:23:08;;;;;;;22.50;11.00;;;0.20;99.90;;;;;;4813784;29;20050;-87
2022/03/04 03:25:34;;;;;;;24.77;11.85;;;-0.10;99.90;;;;;;4805505;29;20129;-84
2022/03/04 03:28:00;;;;;;;22.80;11.10;;;0.00;99.90;;;;;;4817629;29;20493;-85
2022/03/04 03:30:26;;;;;;;23.25;10.80;;;-0.20;99.90;;;;;;4818407;29;20046;-84
2022/03/04 03:32:52;;;;;;;24.83;12.13;;;1.00;99.90;;;;;;4816425;29;20141;-84
2022/03/04 03:35:18;;;;;;;22.33;10.68;;;-0.10;99.90;;;;;;4806461;29;20137;-84
2022/03/04 03:37:43;;;;;;;20.00;9.77;;;-0.20;99.90;;;;;;4797425;29;20065;-85
2022/03/04 03:40:11;;;;;;;21.40;10.57;;;-0.10;99.90;;;;;;4816250;29;20054;-84
2022/03/04 03:42:37;;;;;;;24.02;11.13;;;-0.10;99.90;;;;;;4812832;29;20054;-84
2022/03/04 03:45:04;;;;;;;22.67;11.30;;;-0.10;99.90;;;;;;4821167;29;20050;-84
2022/03/04 03:47:30;;;;;;;23.13;11.80;;;-0.10;99.90;;;;;;4806088;29;20043;-84
2022/03/04 03:49:56;;;;;;;21.30;10.73;;;1.10;99.90;;;;;;4817193;29;20116;-84
2022/03/04 03:52:22;;;;;;;23.50;12.00;;;-0.20;99.90;;;;;;4820256;29;20787;-84
2022/03/04 03:54:47;;;;;;;23.52;10.77;;;0.10;99.90;;;;;;4814170;29;20484;-84
2022/03/04 03:57:13;;;;;;;23.42;13.52;;;0.50;99.90;;;;;;4823483;29;20180;-84
2022/03/04 03:59:39;;;;;;;24.40;10.77;;;-0.20;99.90;;;;;;4821319;29;20047;-84
2022/03/04 04:02:05;;;;;;;21.45;10.60;;;-0.20;99.90;;;;;;4820792;29;20039;-84
2022/03/04 04:04:34;;;;;;;22.40;11.32;;;-0.20;99.90;;;;;;4805595;29;20149;-83
2022/03/04 04:07:09;;;;;;;25.08;11.50;;;0.20;99.90;;;;;;4818461;29;20105;-84
2022/03/04 04:09:35;;;;;;;22.85;12.30;;;0.60;99.90;;;;;;4815981;29;20069;-84
2022/03/04 04:12:01;;;;;;;22.63;11.55;;;-0.30;99.90;;;;;;4839012;29;20055;-84
2022/03/04 04:14:28;;;;;;;21.13;10.90;;;-0.30;99.90;;;;;;4823937;29;20074;-85
2022/03/04 04:16:54;;;;;;;21.27;11.18;;;-0.30;99.90;;;;;;4812508;29;20063;-84
2022/03/04 04:19:21;;;;;;;22.95;10.95;;;0.00;99.90;;;;;;4806930;29;20067;-84
2022/03/04 04:21:47;;;;;;;22.63;10.75;;;0.60;99.90;;;;;;4821270;29;20198;-84
2022/03/04 04:24:13;;;;;;;19.67;9.77;;;-0.20;99.90;;;;;;4807896;29;20544;-83
2022/03/04 04:26:39;;;;;;;25.42;11.45;;;0.10;99.90;;;;;;4811714;29;20057;-84
2022/03/04 04:29:05;;;;;;;22.65;11.30;;;0.60;99.90;;;;;;4808824;29;20062;-85
2022/03/04 04:31:35;;;;;;;25.90;10.50;;;0.40;99.90;;;;;;4816429;29;20073;-85
2022/03/04 04:34:01;;;;;;;24.00;11.65;;;-0.20;99.90;;;;;;4817019;29;20051;-84
2022/03/04 04:36:27;;;;;;;22.83;11.90;;;-0.20;99.90;;;;;;4805804;29;20078;-83
2022/03/04 04:38:53;;;;;;;25.73;12.77;;;-0.20;99.90;;;;;;4818418;29;20237;-84
2022/03/04 04:41:19;;;;;;;23.27;11.27;;;-0.20;99.90;;;;;;4820664;29;20050;-83
2022/03/04 04:43:45;;;;;;;24.70;11.77;;;0.80;99.90;;;;;;4823695;29;20103;-84
2022/03/04 04:46:11;;;;;;;25.08;11.05;;;-0.20;99.90;;;;;;4823349;29;20141;-84
2022/03/04 04:48:37;;;;;;;22.15;11.15;;;-0.20;99.90;;;;;;4813189;29;20137;-84
2022/03/04 04:51:04;;;;;;;21.75;10.60;;;-0.20;99.90;;;;;;4806006;29;20058;-84
2022/03/04 04:53:30;;;;;;;22.42;12.43;;;-0.20;99.90;;;;;;4823367;29;20131;-85
2022/03/04 04:55:56;;;;;;;22.42;11.60;;;-0.20;99.90;;;;;;4820430;29;20086;-84
2022/03/04 04:58:22;;;;;;;28.08;12.90;;;0.80;99.90;;;;;;4790253;29;20165;-84
2022/03/04 05:00:53;;;;;;;21.10;11.40;;;-0.20;99.90;;;;;;4813095;29;20051;-85
2022/03/04 05:03:23;;;;;;;26.38;11.38;;;-0.20;99.90;;;;;;4799509;29;20057;-83
2022/03/04 05:05:50;;;;;;;25.90;11.65;;;-0.20;99.90;;;;;;4820711;29;20083;-83
2022/03/04 05:08:16;;;;;;;24.83;11.30;;;-0.20;99.90;;;;;;4828042;29;20107;-84
2022/03/04 05:10:42;;;;;;;25.23;12.18;;;-0.10;99.90;;;;;;4800806;29;20050;-84
2022/03/04 05:13:08;;;;;;;22.45;11.93;;;-0.10;99.90;;;;;;4812556;29;20082;-84
2022/03/04 05:15:34;;;;;;;25.45;11.52;;;-0.20;99.90;;;;;;4820050;29;20472;-83
2022/03/04 05:17:59;;;;;;;24.80;11.07;;;-0.20;99.90;;;;;;4804861;29;20054;-84
2022/03/04 05:20:25;;;;;;;25.10;12.68;;;0.40;99.90;;;;;;4819268;29;20047;-85
2022/03/04 05:22:51;;;;;;;24.40;11.20;;;-0.20;99.90;;;;;;4804821;29;20051;-84
2022/03/04 05:25:17;;;;;;;20.23;10.95;;;0.50;99.90;;;;;;4835192;29;20521;-84
2022/03/04 05:27:42;;;;;;;21.63;11.40;;;0.60;99.90;;;;;;4807682;29;20123;-84
2022/03/04 05:30:09;;;;;;;22.08;10.88;;;-0.20;99.90;;;;;;4822907;29;20080;-83
2022/03/04 05:32:35;;;;;;;22.35;10.43;;;-0.20;99.90;;;;;;4822755;29;20055;-83
2022/03/04 05:35:00;;;;;;;23.40;11.00;;;-0.20;99.90;;;;;;4822886;29;20050;-83
2022/03/04 05:37:26;;;;;;;22.00;11.40;;;0.50;99.90;;;;;;4819500;29;20059;-83
2022/03/04 05:39:52;;;;;;;22.45;10.90;;;0.40;99.90;;;;;;4817427;29;20047;-84
2022/03/04 05:42:18;;;;;;;21.77;11.13;;;0.60;99.90;;;;;;4795767;29;20123;-84
2022/03/04 05:44:44;;;;;;;26.58;13.50;;;0.80;99.90;;;;;;4810223;29;20461;-84
2022/03/04 05:47:10;;;;;;;24.85;12.27;;;-0.20;99.90;;;;;;4819717;29;20133;-85
2022/03/04 05:49:36;;;;;;;22.38;11.32;;;-0.30;99.90;;;;;;4814747;29;20054;-84
2022/03/04 05:52:03;;;;;;;24.10;11.32;;;0.60;99.90;;;;;;4808768;29;20088;-84
2022/03/04 05:54:29;;;;;;;22.92;12.18;;;-0.30;99.90;;;;;;4822844;29;20133;-84
2022/03/04 05:56:55;;;;;;;26.13;10.93;;;-0.30;99.90;;;;;;4822917;29;20491;-84
2022/03/04 05:59:21;;;;;;;23.52;11.35;;;0.90;99.90;;;;;;4816642;29;20061;-84
2022/03/04 06:01:46;;;;;;;28.30;11.48;;;0.20;99.90;;;;;;4773844;29;20042;-84
2022/03/04 06:04:12;;;;;;;24.30;11.23;;;-0.30;99.90;;;;;;4799486;29;20085;-83
2022/03/04 06:06:38;;;;;;;27.45;11.55;;;0.50;99.90;;;;;;4806948;29;20050;-83
2022/03/04 06:09:04;;;;;;;19.63;10.95;;;-0.40;99.90;;;;;;4808164;29;20062;-84
2022/03/04 06:11:30;;;;;;;23.58;11.27;;;-0.20;99.90;;;;;;4806153;29;20058;-83
2022/03/04 06:13:55;;;;;;;24.67;12.25;;;-0.20;99.90;;;;;;4805966;29;20054;-85
2022/03/04 06:16:21;;;;;;;23.77;11.02;;;-0.20;99.90;;;;;;4822852;29;20102;-87
2022/03/04 06:18:47;;;;;;;26.23;12.35;;;0.40;99.90;;;;;;4814637;29;20078;-84
2022/03/04 06:21:13;;;;;;;24.15;11.68;;;0.50;99.90;;;;;;4822293;29;20046;-84
2022/03/04 06:23:39;;;;;;;26.50;12.68;;;0.20;99.90;;;;;;4807306;29;20192;-84
2022/03/04 06:26:05;;;;;;;21.13;11.20;;;-0.20;99.90;;;;;;4815241;29;20078;-84
2022/03/04 06:28:31;;;;;;;27.42;13.10;;;-0.30;99.90;;;;;;4819570;29;20062;-84
2022/03/04 06:30:56;;;;;;;23.33;12.10;;;-0.30;99.90;;;;;;4818442;29;20057;-84
2022/03/04 06:33:32;;;;;;;25.15;11.23;;;-0.10;99.90;;;;;;4820653;29;20054;-84
2022/03/04 06:36:10;;;;;;;25.65;12.10;;;-0.30;99.90;;;;;;4810874;29;20046;-83
2022/03/04 06:38:39;;;;;;;27.58;12.25;;;0.10;99.90;;;;;;4822548;29;20062;-84
2022/03/04 06:41:05;;;;;;;25.50;11.23;;;0.10;99.90;;;;;;4803997;29;20055;-84
2022/03/04 06:43:32;;;;;;;24.75;12.25;;;-0.10;99.90;;;;;;4834556;29;20066;-83
2022/03/04 06:45:59;;;;;;;23.67;12.25;;;-0.30;99.90;;;;;;4822111;29;20129;-85
2022/03/04 06:48:26;;;;;;;27.60;13.27;;;0.70;99.90;;;;;;4807764;29;20050;-84
2022/03/04 06:50:53;;;;;;;28.02;12.25;;;-0.40;99.90;;;;;;4815431;29;20087;-83
2022/03/04 06:53:19;;;;;;;29.55;14.05;;;-0.30;99.90;;;;;;4819623;29;20054;-83
2022/03/04 06:55:46;;;;;;;27.00;11.73;;;-0.40;99.90;;;;;;4819450;29;20053;-84
2022/03/04 06:58:12;;;;;;;26.27;12.93;;;-0.40;99.90;;;;;;4805759;29;20082;-84
2022/03/04 07:00:39;;;;;;;25.15;11.63;;;-0.40;99.90;;;;;;4832409;29;20106;-84
2022/03/04 07:03:05;;;;;;;26.33;12.68;;;-0.10;99.90;;;;;;4791611;29;20058;-84
2022/03/04 07:05:31;;;;;;;26.13;12.02;;;0.80;99.90;;;;;;4822184;29;20507;-85
2022/03/04 07:07:57;;;;;;;26.90;13.25;;;-0.40;99.90;;;;;;4815490;29;20050;-85
2022/03/04 07:10:23;;;;;;;27.52;12.65;;;-0.40;99.90;;;;;;4807192;29;20141;-85
2022/03/04 07:12:49;;;;;;;26.00;12.90;;;-0.40;99.90;;;;;;4814758;29;20054;-85
2022/03/04 07:15:15;;;;;;;25.35;12.60;;;0.70;99.90;;;;;;4810125;29;20058;-86
2022/03/04 07:17:41;;;;;;;24.38;12.20;;;-0.30;99.90;;;;;;4804779;29;20095;-85
2022/03/04 07:20:09;;;;;;;26.92;12.65;;;0.50;99.90;;;;;;4806706;29;20485;-86
2022/03/04 07:22:35;;;;;;;29.60;13.32;;;-0.20;99.90;;;;;;4815363;29;20442;-87
2022/03/04 07:25:06;;;;;;;26.60;13.38;;;0.10;99.90;;;;;;4803224;29;20051;-87
2022/03/04 07:27:36;;;;;;;24.80;13.43;;;-0.10;99.90;;;;;;4806718;29;20094;-86
2022/03/04 07:30:08;;;;;;;26.42;12.35;;;0.00;99.90;;;;;;4822772;29;20415;-86
2022/03/04 07:32:34;;;;;;;25.30;12.23;;;0.00;99.90;;;;;;4818817;29;20061;-85
2022/03/04 07:35:00;;;;;;;24.17;11.75;;;0.10;99.90;;;;;;4806623;29;20409;-86
2022/03/04 07:37:26;;;;;;;23.00;11.40;;;0.10;99.90;;;;;;4811471;29;20055;-86
2022/03/04 07:39:52;;;;;;;26.52;11.70;;;0.70;99.90;;;;;;4807883;29;20066;-86
2022/03/04 07:42:18;;;;;;;23.08;12.20;;;0.60;99.90;;;;;;4810872;29;20042;-86
2022/03/04 07:44:44;;;;;;;25.35;12.65;;;0.10;99.90;;;;;;4802185;29;20413;-86
2022/03/04 07:47:09;;;;;;;26.67;12.40;;;0.50;99.90;;;;;;4819499;29;20091;-86
2022/03/04 07:49:35;;;;;;;25.55;12.65;;;0.10;99.90;;;;;;4808505;29;20158;-86
2022/03/04 07:52:01;;;;;;;26.33;13.45;;;1.10;99.90;;;;;;4828145;29;20062;-86
2022/03/04 07:54:27;;;;;;;24.30;11.77;;;0.10;99.90;;;;;;4819697;29;20082;-86
2022/03/04 07:56:52;;;;;;;26.45;12.93;;;0.80;99.90;;;;;;4821136;29;20083;-87
2022/03/04 07:59:19;;;;;;;22.45;12.20;;;0.20;99.90;;;;;;4824193;29;20054;-87
2022/03/04 08:01:45;;;;;;;25.27;11.50;;;0.40;99.90;;;;;;4794133;29;20069;-86
2022/03/04 08:04:12;;;;;;;29.67;12.02;;;0.20;99.90;;;;;;4816540;29;20046;-86
2022/03/04 08:06:40;;;;;;;25.20;12.75;;;0.60;99.90;;;;;;4792173;29;20082;-86
2022/03/04 08:09:06;;;;;;;27.98;11.85;;;0.20;99.90;;;;;;4832825;29;20137;-86
2022/03/04 08:11:32;;;;;;;33.40;13.98;;;0.30;99.90;;;;;;4805928;29;20676;-86
2022/03/04 08:13:57;;;;;;;30.65;13.52;;;0.40;99.90;;;;;;4807055;29;20138;-86
2022/03/04 08:16:29;;;;;;;25.23;12.07;;;0.50;99.90;;;;;;4822481;29;20476;-86
2022/03/04 08:18:58;;;;;;;27.17;12.07;;;1.30;99.90;;;;;;4793767;29;20058;-86
2022/03/04 08:21:25;;;;;;;26.75;13.15;;;0.60;99.90;;;;;;4822207;29;20057;-85
2022/03/04 08:23:51;;;;;;;23.83;11.77;;;0.70;99.90;;;;;;4832839;29;20062;-87
2022/03/04 08:26:17;;;;;;;26.90;11.50;;;0.70;99.90;;;;;;4824152;29;20502;-88
2022/03/04 08:28:42;;;;;;;23.00;11.32;;;0.70;99.90;;;;;;4814973;29;20051;-85
2022/03/04 08:31:11;;;;;;;27.65;12.65;;;0.90;99.90;;;;;;4795903;29;20054;-86
2022/03/04 08:33:41;;;;;;;27.83;12.65;;;0.80;99.90;;;;;;4819127;29;20054;-85
2022/03/04 08:36:08;;;;;;;24.85;11.25;;;0.80;99.90;;;;;;4814705;29;20145;-85
2022/03/04 08:38:34;;;;;;;24.65;12.55;;;1.30;99.90;;;;;;4820504;29;20051;-86
2022/03/04 08:41:00;;;;;;;26.30;12.70;;;1.90;99.90;;;;;;4797881;29;20058;-87
2022/03/04 08:43:26;;;;;;;25.63;11.93;;;1.00;99.90;;;;;;4809170;29;20046;-87
2022/03/04 08:45:52;;;;;;;22.15;11.98;;;1.00;99.90;;;;;;4821299;29;20050;-86
2022/03/04 08:48:18;;;;;;;29.35;13.40;;;1.40;99.90;;;;;;4807168;29;20078;-85
2022/03/04 08:50:44;;;;;;;23.80;11.45;;;1.10;99.90;;;;;;4807681;29;20546;-85
2022/03/04 08:53:09;;;;;;;25.27;12.85;;;1.20;99.90;;;;;;4821254;29;20059;-87
2022/03/04 08:55:36;;;;;;;25.88;12.05;;;1.30;99.90;;;;;;4805951;29;20125;-85
2022/03/04 08:58:02;;;;;;;21.15;11.25;;;1.60;99.90;;;;;;4812361;29;20063;-86
2022/03/04 09:00:29;;;;;;;23.00;10.85;;;1.30;99.90;;;;;;4804504;29;20378;-86
2022/03/04 09:02:55;;;;;;;24.42;11.82;;;1.40;99.90;;;;;;4810836;29;20065;-85
2022/03/04 09:05:21;;;;;;;24.85;11.95;;;1.40;99.90;;;;;;4819996;29;20104;-86
2022/03/04 09:07:47;;;;;;;25.23;12.18;;;1.50;99.90;;;;;;4819069;29;20060;-87
2022/03/04 09:10:13;;;;;;;24.25;11.15;;;2.50;99.90;;;;;;4812756;29;20203;-87
2022/03/04 09:12:39;;;;;;;30.23;13.00;;;2.30;99.90;;;;;;4820235;29;20526;-87
2022/03/04 09:15:07;;;;;;;25.23;11.52;;;1.30;99.90;;;;;;4804799;29;20043;-85
2022/03/04 09:17:33;;;;;;;25.85;11.30;;;1.20;99.90;;;;;;4808567;29;20577;-85
2022/03/04 09:20:00;;;;;;;24.58;11.25;;;1.20;99.90;;;;;;4820028;29;20057;-84
2022/03/04 09:22:26;;;;;;;26.80;12.10;;;1.20;99.90;;;;;;4819401;29;20058;-85
2022/03/04 09:24:51;;;;;;;26.02;12.70;;;1.50;99.90;;;;;;4809100;29;20111;-85
2022/03/04 09:27:18;;;;;;;29.38;12.50;;;1.10;99.90;;;;;;4822515;29;20058;-86
2022/03/04 09:29:45;;;;;;;25.30;12.68;;;1.70;99.90;;;;;;4822318;29;20117;-86
2022/03/04 09:32:11;;;;;;;27.23;13.18;;;2.10;99.90;;;;;;4822075;29;20114;-86
2022/03/04 09:34:37;;;;;;;23.40;11.82;;;1.20;99.90;;;;;;4812857;29;20051;-86
2022/03/04 09:37:04;;;;;;;28.27;13.32;;;2.00;99.90;;;;;;4804290;29;20077;-85
2022/03/04 09:39:30;;;;;;;28.17;12.60;;;1.30;99.90;;;;;;4804378;29;20054;-86
2022/03/04 09:41:56;;;;;;;25.23;12.35;;;2.10;99.90;;;;;;4813973;29;20057;-86
2022/03/04 09:44:21;;;;;;;25.35;13.20;;;1.60;99.90;;;;;;4817167;29;20043;-86
2022/03/04 09:46:47;;;;;;;27.52;12.90;;;1.50;99.90;;;;;;4809773;29;20050;-86
2022/03/04 09:49:18;;;;;;;31.27;13.50;;;1.70;99.90;;;;;;4807677;29;20145;-86
2022/03/04 09:51:45;;;;;;;28.90;13.32;;;1.80;99.90;;;;;;4824313;29;20059;-86
2022/03/04 09:54:11;;;;;;;30.77;12.32;;;2.00;99.90;;;;;;4804913;29;20198;-86
2022/03/04 09:56:38;;;;;;;29.88;13.45;;;2.20;99.90;;;;;;4807359;29;20069;-86
2022/03/04 09:59:04;;;;;;;25.65;13.18;;;3.20;99.90;;;;;;4811194;29;20061;-87
2022/03/04 10:01:30;;;;;;;28.25;12.55;;;2.90;99.90;;;;;;4814954;29;20490;-88
2022/03/04 10:03:55;;;;;;;25.58;12.25;;;3.10;99.90;;;;;;4790538;29;20089;-89
2022/03/04 10:06:22;;;;;;;25.30;12.55;;;3.20;99.90;;;;;;4809531;29;20438;-88
2022/03/04 10:08:53;;;;;;;28.23;13.07;;;4.20;99.90;;;;;;4823812;29;20059;-89
2022/03/04 10:11:31;;;;;;;26.77;13.93;;;3.90;99.90;;;;;;4803368;29;20581;-89
2022/03/04 10:13:59;;;;;;;27.42;13.07;;;4.20;99.90;;;;;;4788816;29;20061;-88
2022/03/04 10:16:40;;;;;;;22.73;12.15;;;4.80;99.90;;;;;;4821238;29;20567;-88
2022/03/04 10:19:14;;;;;;;24.48;12.15;;;5.30;99.90;;;;;;4806650;29;20065;-88
2022/03/04 10:21:46;;;;;;;27.42;13.80;;;5.60;99.90;;;;;;4798075;29;20058;-87
2022/03/04 10:24:12;;;;;;;25.67;14.07;;;5.90;99.90;;;;;;4821432;29;20488;-87
2022/03/04 10:26:38;;;;;;;23.98;12.25;;;6.10;99.90;;;;;;4806303;29;20050;-89
2022/03/04 10:29:24;;;;;;;23.65;12.43;;;6.10;99.90;;;;;;4824186;29;20054;-90
2022/03/04 10:32:22;;;;;;;26.27;12.93;;;6.30;99.90;;;;;;4838624;29;20066;-89
2022/03/04 10:35:00;;;;;;;29.15;14.35;;;6.40;99.90;;;;;;4808495;29;20088;-89
2022/03/04 10:37:52;;;;;;;25.42;12.93;;;6.50;99.90;;;;;;4822855;29;20057;-90
2022/03/04 10:40:18;;;;;;;24.33;13.63;;;6.80;99.90;;;;;;4824810;29;20467;-88
2022/03/04 10:42:55;;;;;;;21.95;12.02;;;7.00;99.90;;;;;;4810781;29;20055;-88
2022/03/04 10:45:25;;;;;;;26.23;14.05;;;7.20;99.90;;;;;;4806247;29;20046;-88
2022/03/04 10:48:04;;;;;;;23.75;12.85;;;7.30;99.90;;;;;;4837758;29;20527;-88
2022/03/04 10:50:35;;;;;;;25.77;13.48;;;7.40;99.90;;;;;;4822441;29;20062;-87
2022/03/04 10:53:12;;;;;;;24.48;13.27;;;7.40;99.90;;;;;;4825534;29;20042;-88
2022/03/04 10:55:40;;;;;;;23.50;13.15;;;7.60;99.90;;;;;;4793763;29;20063;-89
2022/03/04 10:58:28;;;;;;;22.15;12.75;;;7.70;99.90;;;;;;4815305;29;20512;-88
2022/03/04 11:00:55;;;;;;;22.55;13.23;;;7.90;99.90;;;;;;4808101;29;20058;-88
2022/03/04 11:03:25;;;;;;;24.50;12.27;;;8.00;99.90;;;;;;4816837;29;20088;-89
2022/03/04 11:05:54;;;;;;;18.90;11.38;;;8.20;99.90;;;;;;4827407;29;20435;-89
2022/03/04 11:08:22;;;;;;;22.55;12.68;;;8.40;99.90;;;;;;4825188;29;20054;-89
2022/03/04 11:10:49;;;;;;;18.75;11.73;;;8.40;99.90;;;;;;4816873;29;20154;-89
2022/03/04 11:13:16;;;;;;;19.80;11.27;;;8.30;99.90;;;;;;4816906;29;20054;-89
2022/03/04 11:15:44;;;;;;;20.77;11.70;;;8.30;99.90;;;;;;4817855;29;20058;-88
2022/03/04 11:18:12;;;;;;;20.13;11.73;;;8.70;99.90;;;;;;4845667;29;20095;-89
2022/03/04 11:20:39;;;;;;;21.45;11.90;;;8.70;99.90;;;;;;4814055;29;20130;-88
2022/03/04 11:23:07;;;;;;;18.63;11.18;;;8.80;99.90;;;;;;4810364;29;20055;-87
2022/03/04 11:25:40;;;;;;;20.80;11.15;;;8.90;99.90;;;;;;4822950;29;20164;-88
2022/03/04 11:28:17;;;;;;;18.23;10.52;;;9.10;99.90;;;;;;4807275;29;20053;-87
2022/03/04 11:30:51;;;;;;;18.75;10.68;;;9.30;99.90;;;;;;4818764;29;20146;-91
2022/03/04 11:33:19;;;;;;;18.80;10.43;;;9.50;99.90;;;;;;4833234;29;20050;-93
2022/03/04 11:36:12;;;;;;;17.38;10.00;;;9.70;99.90;;;;;;4814988;29;20055;-91
2022/03/04 11:38:47;;;;;;;16.30;9.82;;;9.80;99.90;;;;;;4809026;29;20051;-89
2022/03/04 11:41:32;;;;;;;16.35;9.35;;;10.00;99.90;;;;;;4817705;29;20707;-91
2022/03/04 11:43:59;;;;;;;17.58;9.85;;;10.30;99.90;;;;;;4824437;29;20058;-90
2022/03/04 11:46:40;;;;;;;15.18;9.13;;;10.30;99.90;;;;;;4824416;29;20097;-90
2022/03/04 11:49:32;;;;;;;15.68;9.10;;;10.30;99.90;;;;;;4812935;29;20057;-90
2022/03/04 11:52:19;;;;;;;15.90;8.77;;;10.20;99.90;;;;;;4813114;29;20524;-89
2022/03/04 11:54:45;;;;;;;15.73;8.95;;;9.80;99.90;;;;;;4821669;29;20062;-89
2022/03/04 11:57:20;;;;;;;14.98;8.75;;;9.50;99.90;;;;;;4823749;29;20078;-89
2022/03/04 11:59:57;;;;;;;15.38;8.15;;;9.40;99.90;;;;;;4826700;29;20058;-88
2022/03/04 12:02:37;;;;;;;13.07;7.63;;;9.20;99.90;;;;;;4812427;29;20158;-87
2022/03/04 12:05:15;;;;;;;11.98;6.63;;;9.10;99.90;;;;;;4824715;29;20062;-90
2022/03/04 12:07:50;;;;;;;12.63;7.20;;;9.00;99.90;;;;;;4830078;29;20061;-89
2022/03/04 12:10:19;;;;;;;12.57;7.45;;;8.90;99.90;;;;;;4811090;29;20054;-91
2022/03/04 12:13:07;;;;;;;12.85;7.25;;;8.80;99.90;;;;;;4810618;29;20043;-90
2022/03/04 12:15:38;;;;;;;12.85;7.32;;;8.80;99.90;;;;;;4810793;29;20051;-91
2022/03/04 12:18:25;;;;;;;11.70;6.57;;;8.80;99.90;;;;;;4816974;29;20158;-89
2022/03/04 12:20:59;;;;;;;13.68;7.10;;;8.80;99.90;;;;;;4820348;29;20062;-91
2022/03/04 12:23:33;;;;;;;12.05;7.18;;;8.80;99.90;;;;;;4819818;29;20137;-89
2022/03/04 12:25:58;;;;;;;14.73;6.53;;;9.10;99.90;;;;;;4817409;29;20062;-91
2022/03/04 12:28:27;;;;;;;11.60;6.43;;;9.90;99.90;;;;;;4815789;29;20066;-90
2022/03/04 12:31:17;;;;;;;10.68;6.13;;;10.50;99.90;;;;;;4813436;29;20086;-92
2022/03/04 12:33:54;;;;;;;11.95;6.93;;;11.30;99.90;;;;;;4813779;29;20096;-92
2022/03/04 12:36:22;;;;;;;11.65;6.68;;;11.90;99.90;;;;;;4813156;29;20106;-90
2022/03/04 12:38:59;;;;;;;13.02;6.70;;;12.70;99.90;;;;;;4837125;29;20084;-91